createdAt,value
2019-01-27T00:01:37.945Z,5.70
2019-01-27T00:04:19.098Z,5.70
2019-01-27T00:06:59.751Z,5.70
2019-01-27T00:09:40.317Z,5.70
2019-01-27T00:12:20.613Z,5.80
2019-01-27T00:15:01.084Z,5.70
2019-01-27T00:17:41.749Z,5.80
2019-01-27T00:20:22.214Z,5.90
2019-01-27T00:23:02.871Z,5.80
2019-01-27T00:25:43.618Z,5.90
2019-01-27T00:28:24.413Z,5.80
2019-01-27T00:31:04.873Z,5.90
2019-01-27T00:33:45.552Z,5.90
2019-01-27T00:36:25.998Z,6.00
2019-01-27T00:39:06.659Z,5.90
2019-01-27T00:41:47.250Z,6.00
2019-01-27T00:44:28.258Z,6.00
2019-01-27T00:47:08.850Z,6.00
2019-01-27T00:49:49.686Z,5.90
2019-01-27T00:52:30.225Z,5.90
2019-01-27T00:55:10.761Z,5.90
2019-01-27T00:57:51.505Z,5.90
2019-01-27T01:00:32.378Z,5.90
2019-01-27T01:03:12.879Z,5.90
2019-01-27T01:05:53.619Z,5.90
2019-01-27T01:08:34.542Z,5.90
2019-01-27T01:11:15.055Z,6.00
2019-01-27T01:13:55.708Z,5.90
2019-01-27T01:16:36.233Z,5.90
2019-01-27T01:19:16.889Z,5.90
2019-01-27T01:21:57.558Z,5.90
2019-01-27T01:24:37.991Z,6.00
2019-01-27T01:27:18.767Z,6.00
2019-01-27T01:29:59.627Z,6.00
2019-01-27T01:32:40.715Z,6.00
2019-01-27T01:35:21.114Z,6.10
2019-01-27T01:38:01.990Z,6.00
2019-01-27T01:40:43.002Z,6.00
2019-01-27T01:43:23.436Z,6.10
2019-01-27T01:46:04.275Z,6.10
2019-01-27T01:48:44.732Z,6.00
2019-01-27T01:51:25.210Z,6.00
2019-01-27T01:54:05.940Z,6.00
2019-01-27T01:56:46.482Z,6.10
2019-01-27T01:59:27.183Z,6.10
2019-01-27T02:02:07.986Z,6.10
2019-01-27T02:04:48.830Z,6.10
2019-01-27T02:07:29.477Z,6.10
2019-01-27T02:10:10.116Z,6.10
2019-01-27T02:12:50.981Z,6.10
2019-01-27T02:15:31.689Z,6.20
2019-01-27T02:18:12.503Z,6.10
2019-01-27T02:20:53.326Z,6.10
2019-01-27T02:23:34.025Z,6.10
2019-01-27T02:26:14.851Z,6.10
2019-01-27T02:28:55.758Z,6.20
2019-01-27T02:31:36.499Z,6.10
2019-01-27T02:34:17.199Z,6.10
2019-01-27T02:36:57.884Z,6.00
2019-01-27T02:39:38.679Z,6.10
2019-01-27T02:42:19.435Z,6.00
2019-01-27T02:45:00.423Z,6.00
2019-01-27T02:47:41.047Z,6.00
2019-01-27T02:50:21.914Z,6.00
2019-01-27T02:53:02.871Z,5.90
2019-01-27T02:55:43.454Z,6.00
2019-01-27T02:58:23.891Z,6.00
2019-01-27T03:01:04.999Z,6.00
2019-01-27T03:03:45.506Z,6.00
2019-01-27T03:06:33.263Z,5.90
2019-01-27T03:09:32.763Z,5.90
2019-01-27T03:12:13.387Z,5.90
2019-01-27T03:14:54.067Z,5.90
2019-01-27T03:17:34.542Z,6.00
2019-01-27T03:20:14.975Z,6.00
2019-01-27T03:22:55.805Z,6.00
2019-01-27T03:25:36.663Z,6.00
2019-01-27T03:28:17.634Z,5.90
2019-01-27T03:30:58.293Z,5.90
2019-01-27T03:33:39.262Z,6.00
2019-01-27T03:36:19.759Z,6.10
2019-01-27T03:39:00.360Z,6.00
2019-01-27T03:41:41.338Z,6.00
2019-01-27T03:44:22.283Z,6.00
2019-01-27T03:47:03.285Z,6.00
2019-01-27T03:49:43.710Z,6.00
2019-01-27T03:52:24.104Z,5.90
2019-01-27T03:55:04.875Z,6.00
2019-01-27T03:57:45.893Z,6.00
2019-01-27T04:00:26.233Z,6.00
2019-01-27T04:03:07.115Z,6.00
2019-01-27T04:05:47.598Z,6.00
2019-01-27T04:08:28.477Z,6.10
2019-01-27T04:11:08.967Z,6.30
2019-01-27T04:13:49.707Z,6.30
2019-01-27T04:16:30.292Z,6.40
2019-01-27T04:19:11.092Z,6.40
2019-01-27T04:21:52.243Z,6.40
2019-01-27T04:24:33.214Z,6.30
2019-01-27T04:27:14.462Z,6.30
2019-01-27T04:29:55.415Z,6.30
2019-01-27T04:32:36.015Z,6.20
2019-01-27T04:35:16.631Z,6.30
2019-01-27T04:37:57.316Z,6.30
2019-01-27T04:40:38.012Z,6.40
2019-01-27T04:43:18.696Z,6.30
2019-01-27T04:45:59.510Z,6.20
2019-01-27T04:48:40.405Z,6.30
2019-01-27T04:51:21.230Z,6.40
2019-01-27T04:54:01.839Z,6.40
2019-01-27T04:56:43.004Z,6.30
2019-01-27T04:59:23.715Z,6.40
2019-01-27T05:02:04.446Z,6.40
2019-01-27T05:04:45.088Z,6.40
2019-01-27T05:07:26.205Z,6.40
2019-01-27T05:10:06.775Z,6.40
2019-01-27T05:12:47.487Z,6.40
2019-01-27T05:15:28.497Z,6.30
2019-01-27T05:18:09.411Z,6.30
2019-01-27T05:20:50.568Z,6.20
2019-01-27T05:23:31.098Z,6.20
2019-01-27T05:26:11.786Z,6.20
2019-01-27T05:28:52.147Z,6.10
2019-01-27T05:31:32.792Z,6.00
2019-01-27T05:34:13.247Z,6.10
2019-01-27T05:36:53.918Z,6.10
2019-01-27T05:39:34.226Z,6.00
2019-01-27T05:42:14.783Z,6.00
2019-01-27T05:44:55.225Z,6.00
2019-01-27T05:47:35.687Z,6.00
2019-01-27T05:50:16.423Z,6.00
2019-01-27T05:52:56.952Z,5.90
2019-01-27T05:55:37.321Z,5.90
2019-01-27T05:58:17.919Z,6.00
2019-01-27T06:00:58.587Z,6.00
2019-01-27T06:03:39.252Z,6.00
2019-01-27T06:06:19.879Z,6.10
2019-01-27T06:09:00.722Z,6.10
2019-01-27T06:11:41.351Z,6.00
2019-01-27T06:14:22.015Z,6.10
2019-01-27T06:17:02.540Z,6.10
2019-01-27T06:19:43.002Z,6.10
2019-01-27T06:22:23.459Z,6.00
2019-01-27T06:25:04.657Z,6.00
2019-01-27T06:27:45.618Z,6.00
2019-01-27T06:30:25.989Z,6.00
2019-01-27T06:33:32.111Z,6.00
2019-01-27T06:36:13.539Z,6.00
2019-01-27T06:38:54.390Z,6.00
2019-01-27T06:41:34.954Z,6.00
2019-01-27T06:44:15.534Z,6.10
2019-01-27T06:46:56.027Z,6.00
2019-01-27T06:49:36.799Z,6.00
2019-01-27T06:52:17.298Z,6.10
2019-01-27T06:54:58.071Z,6.10
2019-01-27T06:57:39.057Z,6.10
2019-01-27T07:00:38.592Z,6.10
2019-01-27T07:03:22.739Z,6.10
2019-01-27T07:06:23.176Z,6.10
2019-01-27T07:09:17.331Z,6.20
2019-01-27T07:12:04.046Z,6.20
2019-01-27T07:15:07.347Z,6.10
2019-01-27T07:18:06.979Z,6.10
2019-01-27T07:21:03.105Z,6.10
2019-01-27T07:27:13.503Z,6.00
2019-01-27T07:30:13.754Z,6.10
2019-01-27T07:36:24.227Z,6.10
2019-01-27T07:39:24.453Z,6.10
2019-01-27T07:42:15.966Z,6.10
2019-01-27T07:45:14.643Z,6.10
2019-01-27T07:48:14.321Z,6.20
2019-01-27T07:51:21.382Z,6.20
2019-01-27T07:54:17.156Z,6.20
2019-01-27T07:57:24.307Z,6.10
2019-01-27T08:00:34.271Z,6.20
2019-01-27T08:03:41.422Z,6.20
2019-01-27T08:06:48.563Z,6.20
2019-01-27T08:09:35.578Z,6.20
2019-01-27T08:12:35.592Z,6.20
2019-01-27T08:15:30.296Z,6.20
2019-01-27T08:18:29.661Z,6.30
2019-01-27T08:21:20.012Z,6.30
2019-01-27T08:24:08.887Z,6.30
2019-01-27T08:27:05.297Z,6.30
2019-01-27T08:30:05.635Z,6.40
2019-01-27T08:32:57.361Z,6.40
2019-01-27T08:35:57.376Z,6.50
2019-01-27T08:38:46.359Z,6.50
2019-01-27T08:41:46.803Z,6.50
2019-01-27T08:44:50.102Z,6.40
2019-01-27T08:47:30.718Z,6.50
2019-01-27T08:50:11.178Z,6.40
2019-01-27T08:52:51.819Z,6.40
2019-01-27T08:55:32.330Z,6.50
2019-01-27T08:58:13.447Z,6.50
2019-01-27T09:01:13.655Z,6.60
2019-01-27T09:04:02.498Z,6.70
2019-01-27T09:07:08.415Z,6.70
2019-01-27T09:10:08.505Z,6.70
2019-01-27T09:13:11.358Z,6.80
2019-01-27T09:16:10.320Z,6.80
2019-01-27T09:19:16.482Z,7.00
2019-01-27T09:22:16.006Z,7.00
2019-01-27T09:25:15.576Z,7.10
2019-01-27T09:28:18.688Z,7.10
2019-01-27T09:31:05.447Z,7.20
2019-01-27T09:34:05.616Z,7.30
2019-01-27T09:37:05.055Z,7.40
2019-01-27T09:40:05.024Z,7.40
2019-01-27T09:43:05.343Z,7.40
2019-01-27T09:46:05.041Z,7.40
2019-01-27T09:48:54.437Z,7.40
2019-01-27T09:51:57.500Z,7.40
2019-01-27T09:54:46.074Z,7.50
2019-01-27T09:57:45.759Z,7.50
2019-01-27T10:00:33.300Z,7.50
2019-01-27T10:03:25.875Z,7.50
2019-01-27T10:06:26.239Z,7.60
2019-01-27T10:09:13.479Z,7.60
2019-01-27T10:12:13.187Z,7.70
2019-01-27T10:15:13.330Z,7.70
2019-01-27T10:18:12.782Z,7.70
2019-01-27T10:21:13.084Z,7.50
2019-01-27T10:24:12.728Z,7.30
2019-01-27T10:27:12.170Z,7.30
2019-01-27T10:30:12.357Z,7.40
2019-01-27T10:33:11.929Z,7.40
2019-01-27T10:36:11.808Z,7.60
2019-01-27T10:39:07.241Z,7.70
2019-01-27T10:42:07.801Z,7.90
2019-01-27T10:45:03.754Z,7.80
2019-01-27T10:48:03.764Z,7.90
2019-01-27T10:51:04.144Z,8.00
2019-01-27T10:53:53.327Z,8.30
2019-01-27T10:56:53.045Z,8.30
2019-01-27T10:59:44.726Z,8.40
2019-01-27T11:02:38.020Z,8.50
2019-01-27T11:05:26.986Z,8.60
2019-01-27T11:08:27.091Z,8.70
2019-01-27T11:11:26.736Z,8.70
2019-01-27T11:14:26.680Z,8.90
2019-01-27T11:17:32.490Z,8.90
2019-01-27T11:20:18.437Z,8.90
2019-01-27T11:23:21.554Z,9.00
2019-01-27T11:26:21.806Z,9.10
2019-01-27T11:29:21.434Z,9.00
2019-01-27T11:32:28.831Z,9.10
2019-01-27T11:35:35.983Z,9.20
2019-01-27T11:38:43.055Z,9.00
2019-01-27T11:41:38.783Z,8.90
2019-01-27T11:44:46.124Z,8.90
2019-01-27T11:50:53.906Z,8.80
2019-01-27T11:53:41.911Z,8.80
2019-01-27T11:56:10.792Z,8.70
2019-01-27T11:58:39.538Z,8.80
2019-01-27T12:01:27.630Z,8.90
2019-01-27T12:04:15.613Z,9.00
2019-01-27T12:07:03.675Z,9.10
2019-01-27T12:09:44.481Z,9.10
2019-01-27T12:12:25.463Z,9.00
2019-01-27T12:15:06.147Z,8.90
2019-01-27T12:17:46.839Z,8.80
2019-01-27T12:20:27.568Z,8.70
2019-01-27T12:23:08.950Z,8.70
2019-01-27T12:25:49.905Z,8.70
2019-01-27T12:28:30.263Z,8.70
2019-01-27T12:31:11.108Z,8.60
2019-01-27T12:33:51.990Z,8.50
2019-01-27T12:36:32.784Z,8.50
2019-01-27T12:39:13.439Z,8.70
2019-01-27T12:41:54.069Z,8.80
2019-01-27T12:44:34.752Z,8.80
2019-01-27T12:47:15.484Z,8.90
2019-01-27T12:49:56.295Z,8.90
2019-01-27T12:52:36.913Z,8.90
2019-01-27T12:55:18.426Z,8.80
2019-01-27T12:57:58.902Z,8.80
2019-01-27T13:00:39.518Z,8.90
2019-01-27T13:03:21.540Z,9.00
2019-01-27T13:06:02.821Z,9.00
2019-01-27T13:08:43.800Z,9.10
2019-01-27T13:11:24.369Z,9.10
2019-01-27T13:14:05.069Z,9.00
2019-01-27T13:16:46.082Z,9.00
2019-01-27T13:19:26.968Z,8.90
2019-01-27T13:22:12.233Z,8.80
2019-01-27T13:24:50.372Z,8.90
2019-01-27T13:27:30.740Z,8.70
2019-01-27T13:30:12.010Z,8.60
2019-01-27T13:32:52.735Z,8.70
2019-01-27T13:35:33.362Z,8.80
2019-01-27T13:38:13.802Z,8.80
2019-01-27T13:40:54.202Z,8.70
2019-01-27T13:43:34.578Z,8.80
2019-01-27T13:46:15.511Z,8.80
2019-01-27T13:48:56.743Z,8.80
2019-01-27T13:51:37.266Z,8.80
2019-01-27T13:54:17.871Z,8.80
2019-01-27T13:56:58.538Z,8.80
2019-01-27T13:59:39.302Z,8.70
2019-01-27T14:02:19.767Z,8.60
2019-01-27T14:05:00.088Z,8.50
2019-01-27T14:07:41.462Z,8.40
2019-01-27T14:10:22.143Z,8.30
2019-01-27T14:13:02.860Z,8.20
2019-01-27T14:15:43.619Z,8.10
2019-01-27T14:18:24.401Z,8.00
2019-01-27T14:21:05.176Z,8.10
2019-01-27T14:23:45.941Z,8.00
2019-01-27T14:26:26.843Z,7.90
2019-01-27T14:29:07.613Z,7.90
2019-01-27T14:31:48.312Z,7.90
2019-01-27T14:34:28.935Z,7.90
2019-01-27T14:37:09.598Z,7.80
2019-01-27T14:39:50.032Z,7.70
2019-01-27T14:42:30.788Z,7.60
2019-01-27T14:45:11.573Z,7.50
2019-01-27T14:47:52.323Z,7.40
2019-01-27T14:50:33.475Z,7.40
2019-01-27T14:53:14.111Z,7.30
2019-01-27T14:55:54.821Z,7.30
2019-01-27T14:58:35.744Z,7.20
2019-01-27T15:01:16.587Z,7.20
2019-01-27T15:03:57.283Z,7.10
2019-01-27T15:06:37.995Z,7.00
2019-01-27T15:09:18.759Z,7.00
2019-01-27T15:11:59.232Z,6.80
2019-01-27T15:14:39.971Z,6.80
2019-01-27T15:17:20.470Z,6.80
2019-01-27T15:20:01.359Z,6.90
2019-01-27T15:22:42.705Z,6.80
2019-01-27T15:25:23.239Z,6.80
2019-01-27T15:28:04.063Z,6.70
2019-01-27T15:30:45.077Z,6.60
2019-01-27T15:33:26.359Z,6.60
2019-01-27T15:36:06.975Z,6.60
2019-01-27T15:38:47.638Z,6.60
2019-01-27T15:41:28.543Z,6.60
2019-01-27T15:44:09.043Z,6.60
2019-01-27T15:46:50.199Z,6.60
2019-01-27T15:49:30.914Z,6.60
2019-01-27T15:52:11.921Z,6.60
2019-01-27T15:54:53.197Z,6.50
2019-01-27T15:57:33.745Z,6.60
2019-01-27T16:00:14.643Z,6.50
2019-01-27T16:02:55.469Z,6.50
2019-01-27T16:05:35.923Z,6.50
2019-01-27T16:08:17.119Z,6.60
2019-01-27T16:10:57.734Z,6.60
2019-01-27T16:13:38.551Z,6.50
2019-01-27T16:16:19.163Z,6.50
2019-01-27T16:18:59.978Z,6.50
2019-01-27T16:21:40.649Z,6.50
2019-01-27T16:24:25.903Z,6.50
2019-01-27T16:27:07.267Z,6.40
2019-01-27T16:30:10.576Z,6.50
2019-01-27T16:35:59.651Z,6.50
2019-01-27T16:38:40.696Z,6.40
2019-01-27T16:41:21.494Z,6.40
2019-01-27T16:44:02.337Z,6.40
2019-01-27T16:46:43.538Z,6.40
2019-01-27T16:49:24.266Z,6.40
2019-01-27T16:52:05.546Z,6.40
2019-01-27T16:54:46.828Z,6.30
2019-01-27T16:57:27.331Z,6.30
2019-01-27T17:00:08.322Z,6.30
2019-01-27T17:02:49.280Z,6.40
2019-01-27T17:05:30.357Z,6.40
2019-01-27T17:08:11.053Z,6.40
2019-01-27T17:10:51.969Z,6.40
2019-01-27T17:13:32.771Z,6.30
2019-01-27T17:16:13.146Z,6.30
2019-01-27T17:18:54.095Z,6.30
2019-01-27T17:21:34.724Z,6.20
2019-01-27T17:24:15.251Z,6.20
2019-01-27T17:26:55.962Z,6.20
2019-01-27T17:29:36.694Z,6.20
2019-01-27T17:32:17.464Z,6.20
2019-01-27T17:34:58.331Z,6.20
2019-01-27T17:37:38.742Z,6.20
2019-01-27T17:40:19.399Z,6.30
2019-01-27T17:43:00.128Z,6.30
2019-01-27T17:45:41.117Z,6.40
2019-01-27T17:48:22.347Z,6.40
2019-01-27T17:51:03.109Z,6.50
2019-01-27T17:57:23.564Z,6.70
2019-01-27T18:03:32.672Z,6.60
2019-01-27T18:06:22.354Z,6.60
2019-01-27T18:09:22.851Z,6.60
2019-01-27T18:12:10.027Z,6.60
2019-01-27T18:14:51.273Z,6.60
2019-01-27T18:17:31.983Z,6.60
2019-01-27T18:20:12.903Z,6.50
2019-01-27T18:22:54.148Z,6.50
2019-01-27T18:25:34.965Z,6.50
2019-01-27T18:28:15.642Z,6.50
2019-01-27T18:30:56.468Z,6.50
2019-01-27T18:33:36.893Z,6.50
2019-01-27T18:36:17.369Z,6.50
2019-01-27T18:38:58.252Z,6.50
2019-01-27T18:41:39.321Z,6.50
2019-01-27T18:44:20.051Z,6.50
2019-01-27T18:47:01.235Z,6.50
2019-01-27T18:49:42.482Z,6.50
2019-01-27T18:52:22.857Z,6.50
2019-01-27T18:55:22.850Z,6.60
2019-01-27T18:58:28.900Z,6.60
2019-01-27T19:01:28.952Z,6.60
2019-01-27T19:04:20.774Z,6.60
2019-01-27T19:07:20.883Z,6.60
2019-01-27T19:10:20.454Z,6.70
2019-01-27T19:13:11.648Z,6.70
2019-01-27T19:15:58.633Z,6.80
2019-01-27T19:18:58.811Z,6.80
2019-01-27T19:22:01.683Z,6.70
2019-01-27T19:24:59.563Z,6.70
2019-01-27T19:28:02.256Z,6.70
2019-01-27T19:31:02.991Z,6.70
2019-01-27T19:34:03.390Z,6.80
2019-01-27T19:37:03.048Z,6.80
2019-01-27T19:39:59.111Z,6.80
2019-01-27T19:42:59.327Z,6.60
2019-01-27T19:45:53.643Z,6.60
2019-01-27T19:48:42.432Z,6.50
2019-01-27T19:51:29.662Z,6.50
2019-01-27T19:54:24.656Z,6.50
2019-01-27T19:57:27.275Z,6.50
2019-01-27T20:00:29.762Z,6.50
2019-01-27T20:03:29.765Z,6.50
2019-01-27T20:06:15.204Z,6.70
2019-01-27T20:09:15.109Z,6.60
2019-01-27T20:12:14.838Z,6.50
2019-01-27T20:15:02.747Z,6.50
2019-01-27T20:18:10.134Z,6.50
2019-01-27T20:21:17.211Z,6.40
2019-01-27T20:24:24.340Z,6.40
2019-01-27T20:27:31.398Z,6.40
2019-01-27T20:30:38.470Z,6.50
2019-01-27T20:33:45.539Z,6.60
2019-01-27T20:36:52.660Z,6.50
2019-01-27T20:39:59.746Z,6.40
2019-01-27T20:43:06.803Z,6.30
2019-01-27T20:46:14.179Z,6.10
2019-01-27T20:49:21.278Z,6.10
2019-01-27T20:52:28.451Z,6.10
2019-01-27T20:55:35.512Z,6.30
2019-01-27T20:58:42.596Z,6.30
2019-01-27T21:01:49.832Z,6.20
2019-01-27T21:04:56.932Z,6.30
2019-01-27T21:08:04.126Z,6.40
2019-01-27T21:10:59.729Z,6.40
2019-01-27T21:14:00.179Z,6.30
2019-01-27T21:17:00.594Z,6.10
2019-01-27T21:20:01.252Z,5.90
2019-01-27T21:22:42.295Z,5.70
2019-01-27T21:25:22.938Z,5.50
2019-01-27T21:28:03.761Z,5.40
2019-01-27T21:30:44.098Z,5.50
2019-01-27T21:33:24.783Z,5.30
2019-01-27T21:36:05.148Z,5.20
2019-01-27T21:38:45.793Z,5.20
2019-01-27T21:41:26.431Z,5.10
2019-01-27T21:44:07.122Z,4.90
2019-01-27T21:46:48.015Z,4.90
2019-01-27T21:49:29.202Z,4.80
2019-01-27T21:52:09.930Z,4.80
2019-01-27T21:54:50.409Z,4.80
2019-01-27T21:57:31.109Z,4.80
2019-01-27T22:00:11.506Z,4.80
2019-01-27T22:02:52.098Z,4.80
2019-01-27T22:05:32.931Z,4.80
2019-01-27T22:08:13.635Z,4.70
2019-01-27T22:10:54.089Z,4.90
2019-01-27T22:13:34.649Z,5.00
2019-01-27T22:16:15.103Z,5.00
2019-01-27T22:18:55.684Z,5.10
2019-01-27T22:21:36.404Z,5.00
2019-01-27T22:24:16.996Z,5.00
2019-01-27T22:26:57.650Z,5.10
2019-01-27T22:29:38.124Z,4.90
2019-01-27T22:32:19.062Z,5.00
2019-01-27T22:35:00.188Z,5.00
2019-01-27T22:37:40.491Z,4.90
2019-01-27T22:40:21.128Z,4.90
2019-01-27T22:43:01.771Z,4.80
2019-01-27T22:45:42.515Z,4.90
2019-01-27T22:48:23.534Z,4.80
2019-01-27T22:51:04.513Z,5.00
2019-01-27T22:53:45.299Z,4.80
2019-01-27T22:56:25.963Z,4.60
2019-01-27T22:59:06.651Z,4.50
2019-01-27T23:01:47.677Z,4.60
2019-01-27T23:04:28.274Z,4.50
2019-01-27T23:07:09.220Z,4.50
2019-01-27T23:09:50.081Z,4.30
2019-01-27T23:12:30.998Z,4.40
2019-01-27T23:15:11.489Z,4.40
2019-01-27T23:17:52.419Z,4.30
2019-01-27T23:20:32.983Z,4.20
2019-01-27T23:23:13.583Z,4.20
2019-01-27T23:25:54.776Z,4.20
2019-01-27T23:28:36.063Z,4.20
2019-01-27T23:31:16.663Z,4.20
2019-01-27T23:33:57.639Z,4.20
2019-01-27T23:36:37.986Z,4.20
2019-01-27T23:39:18.402Z,4.20
2019-01-27T23:41:59.228Z,4.20
2019-01-27T23:44:40.303Z,4.30
2019-01-27T23:47:20.882Z,4.50
2019-01-27T23:50:01.623Z,4.50
2019-01-27T23:52:42.842Z,4.50
2019-01-27T23:55:23.436Z,4.50
2019-01-27T23:58:04.226Z,4.50
